Time;durP1;ratioP1;P1;durP2;ratioP2;P2;SDS_P1;SDS_P2;PMS_P1;PMS_P2;Temp;Humidity;BMP_temperature;BMP_pressure;BME280_temperature;BME280_humidity;BME280_pressure;Samples;Min_cycle;Max_cycle;Signal;HPM_P1;HPM_P2
2022/04/11 00:01:23;;;;;;;10.57;6.47;;;;;;;2.98;80.03;101749.25;5025399;28;20072;-75
2022/04/11 00:03:49;;;;;;;12.80;6.65;;;;;;;3.00;79.79;101749.19;5061521;28;20501;-75
2022/04/11 00:06:15;;;;;;;14.13;7.20;;;;;;;2.99;79.53;101745.75;5063561;28;20112;-75
2022/04/11 00:08:40;;;;;;;22.52;6.75;;;;;;;2.93;79.73;101739.25;5040666;28;20037;-75
2022/04/11 00:11:06;;;;;;;12.02;6.40;;;;;;;2.91;79.60;101742.81;5046292;28;20154;-75
2022/04/11 00:13:32;;;;;;;12.45;6.43;;;;;;;2.85;79.75;101731.16;5046169;28;20033;-76
2022/04/11 00:15:57;;;;;;;12.80;6.75;;;;;;;2.85;79.56;101741.41;5042526;28;20094;-75
2022/04/11 00:18:23;;;;;;;13.50;6.55;;;;;;;2.81;79.74;101733.97;5061443;28;20025;-75
2022/04/11 00:20:49;;;;;;;10.65;6.22;;;;;;;2.79;80.17;101740.91;5040627;28;20025;-75
2022/04/11 00:23:14;;;;;;;12.50;6.43;;;;;;;2.75;80.09;101730.00;5042980;28;20060;-75
2022/04/11 00:25:40;;;;;;;12.18;6.72;;;;;;;2.77;80.31;101735.88;5056269;28;20032;-75
2022/04/11 00:28:06;;;;;;;15.52;7.05;;;;;;;2.78;79.87;101726.44;5039945;28;20033;-75
2022/04/11 00:30:31;;;;;;;11.88;7.05;;;;;;;2.78;79.71;101727.25;5043635;28;20033;-75
2022/04/11 00:32:57;;;;;;;13.82;7.45;;;;;;;2.80;79.32;101725.44;5044725;28;20040;-75
2022/04/11 00:35:22;;;;;;;14.05;6.88;;;;;;;2.78;78.77;101729.81;5043327;28;20033;-75
2022/04/11 00:37:48;;;;;;;12.88;7.35;;;;;;;2.76;78.98;101723.97;5027925;28;20032;-75
2022/04/11 00:40:13;;;;;;;12.57;6.90;;;;;;;2.76;79.33;101721.41;5027367;28;20020;-75
2022/04/11 00:42:39;;;;;;;10.63;6.50;;;;;;;2.76;79.32;101718.03;5057321;28;20045;-75
2022/04/11 00:45:05;;;;;;;14.82;7.22;;;;;;;2.80;79.33;101722.88;5040015;28;20662;-75
2022/04/11 00:47:31;;;;;;;14.75;7.88;;;;;;;2.75;79.24;101709.53;5042702;28;20047;-75
2022/04/11 00:50:09;;;;;;;11.18;6.07;;;;;;;2.69;79.31;101707.25;5057670;28;20043;-75
2022/04/11 00:52:37;;;;;;;16.05;7.80;;;;;;;2.83;78.69;101709.09;5057850;28;20033;-74
2022/04/11 00:55:05;;;;;;;14.38;7.95;;;;;;;2.88;77.87;101707.94;5059460;28;20033;-75
2022/04/11 00:57:30;;;;;;;14.60;7.85;;;;;;;2.81;77.29;101706.63;5040940;28;20032;-75
2022/04/11 00:59:57;;;;;;;14.25;6.88;;;;;;;2.83;77.38;101699.66;5037719;28;20040;-75
2022/04/11 01:02:22;;;;;;;11.68;7.18;;;;;;;2.87;77.32;101696.03;5042487;28;20418;-75
2022/04/11 01:04:48;;;;;;;16.42;7.50;;;;;;;2.90;76.97;101688.19;5040292;28;20043;-75
2022/04/11 01:07:13;;;;;;;13.40;7.15;;;;;;;2.93;76.87;101692.31;5062658;28;20028;-75
2022/04/11 01:09:40;;;;;;;13.63;7.07;;;;;;;2.88;77.51;101682.31;5040734;28;20035;-75
2022/04/11 01:12:06;;;;;;;15.73;7.53;;;;;;;2.81;78.16;101690.44;5041232;28;20032;-75
2022/04/11 01:14:32;;;;;;;18.17;7.35;;;;;;;2.76;78.53;101680.41;5045805;28;20025;-75
2022/04/11 01:16:59;;;;;;;14.15;7.43;;;;;;;2.73;79.08;101685.69;5028287;28;20028;-75
2022/04/11 01:19:25;;;;;;;15.30;8.13;;;;;;;2.80;78.54;101679.34;5025596;28;20032;-75
2022/04/11 01:21:51;;;;;;;12.93;7.35;;;;;;;2.92;77.69;101678.69;5036707;28;20671;-74
2022/04/11 01:24:21;;;;;;;14.13;7.60;;;;;;;2.87;77.62;101675.53;5059977;28;20016;-74
2022/04/11 01:26:48;;;;;;;13.07;8.05;;;;;;;2.89;77.73;101673.72;5025424;28;20078;-74
2022/04/11 01:29:16;;;;;;;14.15;8.18;;;;;;;2.81;78.23;101670.75;5040313;28;20035;-75
2022/04/11 01:31:41;;;;;;;14.40;8.02;;;;;;;2.78;78.26;101675.22;5041681;28;20055;-74
2022/04/11 01:34:07;;;;;;;11.85;7.38;;;;;;;2.73;78.77;101670.31;5038247;28;20523;-75
2022/04/11 01:36:32;;;;;;;18.35;8.23;;;;;;;2.75;79.15;101671.09;5025414;28;20505;-75
2022/04/11 01:38:59;;;;;;;15.43;8.15;;;;;;;2.79;79.55;101675.13;5037373;28;20763;-75
2022/04/11 01:41:24;;;;;;;14.23;8.02;;;;;;;2.75;79.89;101665.97;5020697;28;20043;-75
2022/04/11 01:43:51;;;;;;;16.75;8.32;;;;;;;2.82;78.98;101664.69;5039228;28;20072;-75
2022/04/11 01:46:16;;;;;;;19.60;8.90;;;;;;;2.98;77.88;101674.13;5040527;28;20036;-75
2022/04/11 01:48:50;;;;;;;12.98;7.75;;;;;;;2.84;77.30;101668.00;5040215;28;20054;-75
2022/04/11 01:51:16;;;;;;;15.40;8.15;;;;;;;2.82;78.17;101662.13;5040733;28;20067;-75
2022/04/11 01:53:41;;;;;;;19.02;8.88;;;;;;;2.86;78.98;101660.25;5054800;28;20040;-75
2022/04/11 01:56:07;;;;;;;16.35;8.48;;;;;;;2.79;79.12;101657.22;5019403;28;20033;-75
2022/04/11 01:58:33;;;;;;;15.43;8.30;;;;;;;2.77;79.65;101663.31;5037911;28;20036;-75
2022/04/11 02:00:59;;;;;;;13.75;8.50;;;;;;;2.77;79.50;101659.03;5040238;28;20043;-75
2022/04/11 02:03:25;;;;;;;19.35;10.18;;;;;;;2.87;78.91;101660.16;5058078;28;20474;-75
2022/04/11 02:05:51;;;;;;;17.10;8.93;;;;;;;2.85;78.55;101651.72;5036084;28;20060;-75
2022/04/11 02:08:17;;;;;;;17.95;8.73;;;;;;;2.80;79.24;101653.72;5035303;28;20036;-75
2022/04/11 02:10:43;;;;;;;18.75;9.55;;;;;;;2.77;79.64;101656.47;5034171;28;20035;-75
2022/04/11 02:13:09;;;;;;;22.83;9.10;;;;;;;2.82;79.50;101657.00;5037482;28;20109;-75
2022/04/11 02:15:36;;;;;;;16.13;9.05;;;;;;;2.79;80.05;101651.22;5040578;28;20111;-75
2022/04/11 02:18:03;;;;;;;21.13;9.13;;;;;;;2.82;79.45;101649.34;5036050;28;20507;-75
2022/04/11 02:20:28;;;;;;;20.17;9.43;;;;;;;2.89;79.68;101648.09;5042642;28;20028;-75
2022/04/11 02:22:55;;;;;;;21.42;9.00;;;;;;;2.97;78.76;101654.53;5035918;28;20052;-75
2022/04/11 02:25:24;;;;;;;20.60;8.88;;;;;;;2.99;78.92;101650.13;5059303;28;20025;-75
2022/04/11 02:27:51;;;;;;;18.48;8.48;;;;;;;2.96;78.77;101663.09;5041475;28;20330;-75
2022/04/11 02:30:18;;;;;;;13.70;7.60;;;;;;;2.96;78.93;101656.28;5041729;28;20532;-75
2022/04/11 02:32:45;;;;;;;18.10;8.80;;;;;;;3.06;78.63;101652.28;5040056;28;20056;-74
2022/04/11 02:35:11;;;;;;;13.45;7.43;;;;;;;3.01;78.80;101658.56;5036698;28;20051;-75
2022/04/11 02:37:38;;;;;;;14.45;7.85;;;;;;;2.89;79.00;101663.47;5034674;28;20032;-75
2022/04/11 02:40:05;;;;;;;16.15;8.38;;;;;;;2.87;79.56;101662.72;5037321;28;20029;-74
2022/04/11 02:42:35;;;;;;;18.80;8.48;;;;;;;2.80;79.90;101663.97;5035703;28;20367;-75
2022/04/11 02:45:11;;;;;;;18.05;8.70;;;;;;;2.78;80.13;101659.84;5040475;28;20368;-75
2022/04/11 02:47:37;;;;;;;17.30;9.48;;;;;;;2.79;79.98;101656.34;5038200;28;20771;-74
2022/04/11 02:50:04;;;;;;;12.75;8.07;;;;;;;2.82;80.07;101659.56;5024290;28;22252;-75
2022/04/11 02:52:55;;;;;;;13.03;7.67;;;;;;;2.86;79.38;101655.97;5039239;28;20165;-75
2022/04/11 02:55:21;;;;;;;17.65;7.65;;;;;;;2.91;79.08;101659.06;5052665;28;20059;-75
2022/04/11 02:57:48;;;;;;;14.10;6.55;;;;;;;2.85;78.96;101658.59;5025883;28;20035;-74
2022/04/11 03:00:14;;;;;;;11.35;6.72;;;;;;;2.95;78.12;101664.84;5039808;28;20025;-75
2022/04/11 03:02:50;;;;;;;14.75;6.65;;;;;;;2.93;77.26;101664.13;5038575;28;20113;-75
2022/04/11 03:05:16;;;;;;;13.93;6.65;;;;;;;2.96;77.11;101668.25;5056514;28;20032;-75
2022/04/11 03:07:44;;;;;;;13.40;6.00;;;;;;;2.95;76.92;101658.91;5021467;28;20028;-74
2022/04/11 03:10:10;;;;;;;16.05;6.35;;;;;;;2.91;76.25;101653.13;5022533;28;20159;-74
2022/04/11 03:12:36;;;;;;;12.63;5.45;;;;;;;2.91;76.63;101664.19;5022913;28;20036;-74
2022/04/11 03:15:06;;;;;;;9.35;5.85;;;;;;;2.90;75.74;101660.00;5038987;28;20047;-74
2022/04/11 03:17:31;;;;;;;14.80;6.20;;;;;;;2.98;75.95;101648.50;5024263;28;20036;-75
2022/04/11 03:19:57;;;;;;;11.23;5.60;;;;;;;3.00;76.04;101647.50;5019090;28;20024;-75
2022/04/11 03:22:22;;;;;;;14.05;5.40;;;;;;;2.97;75.37;101646.84;5039002;28;20078;-75
2022/04/11 03:24:53;;;;;;;10.68;5.47;;;;;;;2.88;76.09;101645.59;5037802;28;20460;-74
2022/04/11 03:27:19;;;;;;;10.23;5.50;;;;;;;2.88;75.53;101648.16;5020454;28;20032;-74
2022/04/11 03:29:44;;;;;;;13.50;5.45;;;;;;;2.85;75.40;101644.06;5040483;28;20025;-74
2022/04/11 03:32:11;;;;;;;11.50;5.60;;;;;;;2.84;75.22;101639.00;5038813;28;20160;-74
2022/04/11 03:34:38;;;;;;;15.02;5.68;;;;;;;2.86;75.39;101642.31;5035372;28;20064;-75
2022/04/11 03:37:04;;;;;;;10.13;4.50;;;;;;;2.84;75.76;101639.81;5023318;28;20596;-75
2022/04/11 03:39:36;;;;;;;13.13;5.70;;;;;;;2.83;75.99;101643.31;5040106;28;20025;-75
2022/04/11 03:42:02;;;;;;;11.57;5.10;;;;;;;2.75;75.83;101636.94;5022692;28;20029;-75
2022/04/11 03:44:30;;;;;;;11.43;5.10;;;;;;;2.70;76.20;101643.16;5036524;28;20037;-74
2022/04/11 03:47:02;;;;;;;11.90;5.28;;;;;;;2.72;76.29;101637.97;5036928;28;20041;-74
2022/04/11 03:49:31;;;;;;;13.75;5.72;;;;;;;2.67;76.29;101638.19;5040242;28;20064;-75
2022/04/11 03:52:02;;;;;;;11.18;5.10;;;;;;;2.69;76.18;101636.41;5036289;28;20040;-74
2022/04/11 03:54:29;;;;;;;8.77;4.70;;;;;;;2.68;76.10;101639.03;5024080;28;20279;-74
2022/04/11 03:56:54;;;;;;;10.95;4.70;;;;;;;2.50;76.35;101635.72;5021505;28;20025;-74
2022/04/11 03:59:20;;;;;;;13.20;5.20;;;;;;;2.58;76.83;101643.00;5041791;28;20036;-75
2022/04/11 04:01:45;;;;;;;8.88;4.43;;;;;;;2.56;76.67;101642.25;5058897;28;20056;-74
2022/04/11 04:04:11;;;;;;;8.45;5.00;;;;;;;2.57;76.80;101638.81;5040367;28;20078;-74
2022/04/11 04:06:36;;;;;;;11.98;5.05;;;;;;;2.44;76.97;101633.50;5025725;28;20400;-75
2022/04/11 04:09:04;;;;;;;13.45;5.25;;;;;;;2.54;76.31;101634.66;5054670;28;20038;-74
2022/04/11 04:11:35;;;;;;;10.50;5.40;;;;;;;2.50;76.51;101636.56;5040196;28;20056;-75
2022/04/11 04:14:13;;;;;;;17.33;5.97;;;;;;;2.51;76.56;101642.53;5038172;28;20051;-75
2022/04/11 04:16:43;;;;;;;7.75;4.50;;;;;;;2.37;76.74;101638.13;5035653;28;20036;-75
2022/04/11 04:19:12;;;;;;;13.68;5.07;;;;;;;2.37;76.41;101635.56;5055999;28;20497;-74
2022/04/11 04:21:39;;;;;;;8.85;4.70;;;;;;;2.29;77.21;101627.47;5055659;28;20624;-75
2022/04/11 04:24:09;;;;;;;8.35;5.00;;;;;;;2.30;77.39;101640.19;5043372;28;20377;-75
2022/04/11 04:26:35;;;;;;;16.15;5.85;;;;;;;2.27;77.11;101635.22;5042734;28;20029;-75
2022/04/11 04:29:03;;;;;;;12.93;4.63;;;;;;;2.22;77.40;101642.31;5023658;28;20032;-75
2022/04/11 04:31:34;;;;;;;15.95;5.85;;;;;;;2.31;76.77;101641.00;5047937;28;20033;-74
2022/04/11 04:34:00;;;;;;;10.68;5.18;;;;;;;2.20;77.11;101644.13;5042856;28;20036;-75
2022/04/11 04:36:26;;;;;;;11.43;4.97;;;;;;;2.16;77.42;101647.78;5045404;28;20024;-74
2022/04/11 04:38:52;;;;;;;8.68;4.80;;;;;;;2.14;77.11;101644.47;5039616;28;20025;-74
2022/04/11 04:41:18;;;;;;;10.98;4.95;;;;;;;2.12;77.66;101641.16;5027270;28;20047;-74
2022/04/11 04:43:43;;;;;;;9.70;5.15;;;;;;;2.11;77.23;101645.47;5042057;28;20028;-74
2022/04/11 04:46:09;;;;;;;11.98;5.60;;;;;;;2.08;77.46;101640.50;5041707;28;20020;-75
2022/04/11 04:48:41;;;;;;;8.40;4.75;;;;;;;1.96;77.94;101643.72;5046345;28;20036;-74
2022/04/11 04:51:10;;;;;;;9.40;5.25;;;;;;;1.90;78.18;101649.13;5027162;28;20120;-74
2022/04/11 04:53:39;;;;;;;9.25;4.90;;;;;;;1.86;79.07;101642.53;5023024;28;20028;-74
2022/04/11 04:56:05;;;;;;;11.43;5.13;;;;;;;1.88;78.69;101648.38;5025437;28;20033;-74
2022/04/11 04:58:35;;;;;;;10.55;5.38;;;;;;;1.85;78.62;101644.25;5039089;28;20032;-74
2022/04/11 05:01:01;;;;;;;12.45;5.65;;;;;;;1.78;78.59;101642.09;5041851;28;20101;-74
2022/04/11 05:03:27;;;;;;;12.40;5.90;;;;;;;1.97;78.02;101650.47;5039480;28;20512;-74
2022/04/11 05:05:54;;;;;;;10.18;5.13;;;;;;;1.89;78.24;101642.38;5042920;28;20066;-74
2022/04/11 05:08:20;;;;;;;10.25;5.55;;;;;;;1.94;78.05;101643.78;5041066;28;20836;-74
2022/04/11 05:10:46;;;;;;;10.85;5.10;;;;;;;2.05;77.29;101639.84;5037856;28;20037;-75
2022/04/11 05:13:12;;;;;;;10.88;5.35;;;;;;;2.10;77.11;101641.25;5024353;28;20370;-74
2022/04/11 05:15:42;;;;;;;12.13;5.25;;;;;;;2.05;77.21;101634.72;5028148;28;20047;-74
2022/04/11 05:18:13;;;;;;;14.27;5.75;;;;;;;1.95;77.42;101635.19;5024393;28;20036;-74
2022/04/11 05:20:41;;;;;;;13.20;5.93;;;;;;;1.85;78.37;101635.75;5038506;28;20059;-74
2022/04/11 05:23:07;;;;;;;13.65;4.55;;;;;;;1.89;78.53;101632.13;5024174;28;20740;-74
2022/04/11 05:25:36;;;;;;;10.18;4.75;;;;;;;1.98;77.83;101629.09;5040290;28;20060;-74
2022/04/11 05:28:02;;;;;;;14.40;4.65;;;;;;;2.00;77.25;101629.84;5041362;28;20039;-74
2022/04/11 05:30:35;;;;;;;11.73;5.03;;;;;;;2.03;77.23;101627.13;5035983;28;20033;-74
2022/04/11 05:33:02;;;;;;;12.88;5.75;;;;;;;2.05;77.27;101635.53;5019896;28;20517;-75
2022/04/11 05:35:28;;;;;;;15.93;5.18;;;;;;;2.16;76.95;101626.47;5036897;28;20035;-74
2022/04/11 05:37:54;;;;;;;14.48;5.18;;;;;;;2.28;76.24;101629.22;5052427;28;20029;-74
2022/04/11 05:40:19;;;;;;;11.95;5.43;;;;;;;2.22;76.25;101621.03;5039963;28;20040;-74
2022/04/11 05:42:45;;;;;;;10.02;4.60;;;;;;;2.30;75.44;101627.41;5057642;28;20048;-74
2022/04/11 05:45:12;;;;;;;6.55;4.15;;;;;;;2.49;75.59;101621.28;5038584;28;20033;-74
2022/04/11 05:47:38;;;;;;;12.77;5.38;;;;;;;2.42;75.42;101628.47;5042652;28;20020;-74
2022/04/11 05:50:04;;;;;;;9.55;4.95;;;;;;;2.55;75.45;101623.50;5024627;28;20032;-74
2022/04/11 05:52:29;;;;;;;11.73;4.80;;;;;;;2.54;74.90;101624.41;5042349;28;20051;-74
2022/04/11 05:54:55;;;;;;;12.50;5.10;;;;;;;2.52;75.09;101627.06;5044566;28;20035;-74
2022/04/11 05:57:22;;;;;;;13.07;4.90;;;;;;;2.46;75.93;101624.81;5044076;28;20029;-74
2022/04/11 05:59:48;;;;;;;11.70;5.05;;;;;;;2.55;76.15;101625.25;5041381;28;20085;-74
2022/04/11 06:02:14;;;;;;;9.20;4.88;;;;;;;2.66;76.27;101622.94;5027160;28;21206;-74
2022/04/11 06:04:41;;;;;;;12.50;5.03;;;;;;;2.75;75.91;101616.47;5039771;28;20071;-75
2022/04/11 06:07:07;;;;;;;11.88;5.85;;;;;;;2.74;75.88;101618.19;5042845;28;20501;-74
2022/04/11 06:09:33;;;;;;;11.43;5.40;;;;;;;2.98;74.58;101617.75;5044102;28;20043;-75
2022/04/11 06:11:59;;;;;;;9.45;5.10;;;;;;;2.93;74.42;101623.94;5038089;28;20027;-74
2022/04/11 06:14:25;;;;;;;7.53;5.07;;;;;;;3.12;73.22;101617.78;5039584;28;20033;-74
2022/04/11 06:16:50;;;;;;;12.02;4.40;;;;;;;3.39;72.16;101617.94;5040777;28;20035;-74
2022/04/11 06:19:17;;;;;;;9.50;4.88;;;;;;;3.44;71.73;101615.09;5023489;28;20037;-74
2022/04/11 06:21:43;;;;;;;16.00;4.70;;;;;;;3.61;71.68;101619.25;5056754;28;20119;-74
2022/04/11 06:24:09;;;;;;;8.45;4.40;;;;;;;3.70;71.42;101619.50;5022255;28;20044;-74
2022/04/11 06:26:35;;;;;;;12.80;4.30;;;;;;;3.75;71.83;101615.84;5040085;28;20493;-74
2022/04/11 06:29:00;;;;;;;8.27;4.95;;;;;;;3.80;71.39;101616.41;5023965;28;20053;-74
2022/04/11 06:31:26;;;;;;;9.63;4.20;;;;;;;3.90;71.32;101620.91;5038940;28;20035;-74
2022/04/11 06:33:57;;;;;;;10.82;4.82;;;;;;;3.99;71.42;101610.97;5040573;28;20037;-74
2022/04/11 06:36:25;;;;;;;14.15;4.32;;;;;;;4.20;70.66;101608.84;5057305;28;20081;-75
2022/04/11 06:38:51;;;;;;;9.43;4.35;;;;;;;4.21;70.60;101620.75;5025117;28;20032;-75
2022/04/11 06:41:18;;;;;;;10.05;5.10;;;;;;;4.48;70.00;101625.91;5041074;28;20029;-75
2022/04/11 06:43:44;;;;;;;10.57;4.35;;;;;;;4.63;69.48;101624.13;5043128;28;20067;-74
2022/04/11 06:46:18;;;;;;;13.38;4.47;;;;;;;4.73;68.85;101614.09;5042401;28;20032;-75
2022/04/11 06:48:44;;;;;;;8.40;4.70;;;;;;;4.94;69.29;101623.00;5054139;28;20031;-75
2022/04/11 06:51:10;;;;;;;9.57;4.22;;;;;;;5.18;67.33;101614.59;5040742;28;20032;-75
2022/04/11 06:53:36;;;;;;;7.15;3.92;;;;;;;5.38;67.36;101611.53;5041240;28;20044;-75
2022/04/11 06:56:01;;;;;;;11.05;4.60;;;;;;;5.68;66.32;101614.75;5039347;28;20036;-75
2022/04/11 06:58:26;;;;;;;8.75;4.07;;;;;;;6.04;64.85;101612.22;5039168;28;20017;-75
2022/04/11 07:00:52;;;;;;;6.88;3.50;;;;;;;6.54;62.26;101612.19;5058479;28;20052;-75
2022/04/11 07:03:17;;;;;;;8.85;3.97;;;;;;;6.89;60.82;101616.53;5024083;28;20039;-75
2022/04/11 07:05:43;;;;;;;8.70;3.53;;;;;;;7.40;59.50;101607.63;5040448;28;20493;-75
2022/04/11 07:08:08;;;;;;;8.52;3.80;;;;;;;7.95;57.42;101603.44;5021743;28;20025;-75
2022/04/11 07:10:34;;;;;;;7.43;3.75;;;;;;;8.51;56.61;101602.53;5041156;28;20032;-75
2022/04/11 07:13:00;;;;;;;10.15;4.43;;;;;;;8.85;54.81;101604.94;5042784;28;20035;-75
2022/04/11 07:15:25;;;;;;;7.72;3.28;;;;;;;9.09;54.66;101596.94;5039314;28;20438;-75
2022/04/11 07:17:51;;;;;;;5.30;3.40;;;;;;;8.74;54.17;101594.69;5041828;28;20120;-75
2022/04/11 07:20:16;;;;;;;9.20;4.20;;;;;;;8.79;54.10;101600.28;5061685;28;20266;-75
2022/04/11 07:22:42;;;;;;;12.77;4.65;;;;;;;9.28;53.95;101596.22;5059882;28;20028;-75
2022/04/11 07:25:09;;;;;;;11.52;4.43;;;;;;;9.16;53.92;101597.25;5026748;28;20025;-75
2022/04/11 07:27:35;;;;;;;6.18;3.35;;;;;;;9.20;53.53;101603.00;5058142;28;20027;-75
2022/04/11 07:30:00;;;;;;;8.65;3.55;;;;;;;9.64;53.15;101603.63;5041196;28;20037;-75
2022/04/11 07:32:26;;;;;;;9.18;3.28;;;;;;;10.31;52.51;101595.25;5053719;28;20036;-75
2022/04/11 07:34:51;;;;;;;6.20;3.38;;;;;;;10.43;51.05;101593.34;5039231;28;20052;-76
2022/04/11 07:37:16;;;;;;;6.43;3.65;;;;;;;10.26;51.38;101594.78;5024084;28;20032;-75
2022/04/11 07:39:43;;;;;;;6.53;3.45;;;;;;;10.21;51.09;101593.56;5060928;28;20040;-75
2022/04/11 07:42:08;;;;;;;9.15;3.50;;;;;;;10.41;50.55;101599.63;5040978;28;20044;-75
2022/04/11 07:44:34;;;;;;;6.80;3.30;;;;;;;10.24;51.02;101593.28;5042292;28;20032;-75
2022/04/11 07:46:59;;;;;;;13.15;3.58;;;;;;;10.35;51.63;101587.22;5027372;28;20984;-76
2022/04/11 07:49:24;;;;;;;7.07;2.92;;;;;;;10.93;50.69;101583.78;5026255;28;20726;-75
2022/04/11 07:51:50;;;;;;;7.82;3.33;;;;;;;11.33;49.88;101591.31;5039199;28;20090;-76
2022/04/11 07:54:15;;;;;;;8.30;3.50;;;;;;;11.48;48.72;101586.50;5027692;28;20040;-76
2022/04/11 07:56:41;;;;;;;12.05;3.78;;;;;;;11.65;48.98;101587.53;5044344;28;20038;-76
2022/04/11 07:59:06;;;;;;;8.10;3.08;;;;;;;12.07;48.35;101579.25;5030416;28;20485;-76
2022/04/11 08:01:32;;;;;;;8.70;3.45;;;;;;;11.85;48.04;101580.47;5064460;28;20032;-77
2022/04/11 08:03:57;;;;;;;6.50;2.70;;;;;;;12.20;47.00;101573.69;5045928;28;20040;-76
2022/04/11 08:06:23;;;;;;;7.60;3.83;;;;;;;12.43;46.90;101584.47;5046410;28;20044;-76
2022/04/11 08:08:48;;;;;;;8.45;2.97;;;;;;;12.65;46.83;101584.00;5060706;28;20040;-76
2022/04/11 08:11:15;;;;;;;6.95;3.60;;;;;;;12.72;46.51;101579.03;5023774;28;20047;-76
2022/04/11 08:13:40;;;;;;;7.03;3.20;;;;;;;12.28;47.12;101578.97;5047501;28;20177;-76
2022/04/11 08:16:06;;;;;;;13.07;3.95;;;;;;;12.52;46.61;101583.56;5029849;28;20112;-77
2022/04/11 08:18:32;;;;;;;10.52;3.50;;;;;;;12.68;47.17;101577.69;5043056;28;20033;-77
2022/04/11 08:20:57;;;;;;;8.10;3.53;;;;;;;12.69;46.53;101571.50;5031997;28;20124;-77
2022/04/11 08:23:23;;;;;;;8.07;3.40;;;;;;;13.36;45.64;101566.59;5052905;28;20059;-77
2022/04/11 08:25:49;;;;;;;7.07;3.35;;;;;;;13.62;44.48;101566.56;5052713;28;20012;-76
2022/04/11 08:28:15;;;;;;;7.38;3.33;;;;;;;13.55;44.46;101555.13;5053974;28;20029;-76
2022/04/11 08:30:41;;;;;;;12.68;3.80;;;;;;;13.68;44.69;101549.47;5047003;28;20032;-77
2022/04/11 08:33:06;;;;;;;10.10;3.45;;;;;;;13.43;44.79;101556.38;5042956;28;20032;-77
2022/04/11 08:35:32;;;;;;;7.95;3.47;;;;;;;13.16;45.59;101557.34;5028712;28;20037;-76
2022/04/11 08:37:57;;;;;;;7.43;3.50;;;;;;;12.85;45.26;101555.22;5059122;28;20115;-76
2022/04/11 08:40:23;;;;;;;13.65;4.15;;;;;;;12.88;45.86;101556.69;5047771;28;20032;-77
2022/04/11 08:42:51;;;;;;;6.35;3.30;;;;;;;13.22;47.57;101549.75;5045131;28;20080;-77
2022/04/11 08:45:19;;;;;;;12.82;3.90;;;;;;;13.42;45.87;101552.94;5043461;28;20039;-77
2022/04/11 08:47:45;;;;;;;8.98;3.50;;;;;;;13.37;45.43;101551.78;5060642;28;20220;-77
2022/04/11 08:50:12;;;;;;;13.90;4.40;;;;;;;13.93;45.00;101544.31;5032187;28;20081;-77
2022/04/11 08:52:38;;;;;;;6.68;3.75;;;;;;;13.85;44.68;101539.09;5021443;28;20067;-77
2022/04/11 08:55:04;;;;;;;11.55;4.53;;;;;;;13.90;44.93;101536.81;5063089;28;20119;-77
2022/04/11 08:57:30;;;;;;;9.07;4.07;;;;;;;13.67;43.47;101542.59;5042147;28;20036;-77
2022/04/11 09:00:01;;;;;;;12.27;4.78;;;;;;;13.35;45.16;101533.69;5043574;28;20031;-77
2022/04/11 09:02:35;;;;;;;9.77;3.95;;;;;;;13.78;43.97;101526.69;5042538;28;20040;-77
2022/04/11 09:05:01;;;;;;;12.93;4.22;;;;;;;13.59;43.43;101532.16;5054725;28;20032;-77
2022/04/11 09:07:26;;;;;;;10.60;4.20;;;;;;;14.00;43.63;101521.84;5026768;28;20604;-77
2022/04/11 09:09:52;;;;;;;10.88;4.28;;;;;;;13.74;44.03;101527.97;5038838;28;20042;-76
2022/04/11 09:12:19;;;;;;;9.65;4.40;;;;;;;13.25;45.65;101527.78;5037216;28;20036;-77
2022/04/11 09:14:55;;;;;;;11.65;3.42;;;;;;;13.98;45.23;101522.00;5056043;28;20039;-77
2022/04/11 09:17:24;;;;;;;8.32;3.72;;;;;;;14.12;43.07;101524.94;5041413;28;20040;-77
2022/04/11 09:20:07;;;;;;;8.93;3.65;;;;;;;13.91;45.09;101513.19;5026843;28;20036;-77
2022/04/11 09:22:33;;;;;;;7.50;3.28;;;;;;;13.87;43.65;101505.84;5062210;28;20108;-77
2022/04/11 09:25:07;;;;;;;8.73;3.22;;;;;;;14.00;42.36;101508.81;5045024;28;20557;-77
2022/04/11 09:27:32;;;;;;;7.55;3.20;;;;;;;13.83;42.54;101511.38;5059023;28;20566;-75
2022/04/11 09:29:58;;;;;;;10.15;3.05;;;;;;;13.72;42.86;101516.09;5065149;28;20028;-77
2022/04/11 09:32:24;;;;;;;10.40;2.75;;;;;;;13.27;42.42;101518.00;5037881;28;20115;-78
2022/04/11 09:34:55;;;;;;;9.20;3.50;;;;;;;13.50;42.60;101518.28;5037262;28;20028;-77
2022/04/11 09:37:21;;;;;;;5.03;2.50;;;;;;;13.48;41.73;101522.03;5053395;28;20032;-78
2022/04/11 09:39:55;;;;;;;7.18;2.95;;;;;;;13.45;41.68;101515.38;5040581;28;20406;-77
2022/04/11 09:42:33;;;;;;;7.13;3.13;;;;;;;13.62;42.14;101516.22;5060034;28;20110;-77
2022/04/11 09:45:00;;;;;;;6.05;2.70;;;;;;;13.70;40.94;101513.63;5043478;28;20028;-78
2022/04/11 09:47:25;;;;;;;6.50;2.75;;;;;;;13.57;39.63;101505.47;5043468;28;20032;-78
2022/04/11 09:49:51;;;;;;;7.00;3.03;;;;;;;13.84;40.26;101501.75;5027764;28;20039;-77
2022/04/11 09:52:17;;;;;;;10.35;2.72;;;;;;;13.68;38.61;101506.97;5037532;28;20029;-77
2022/04/11 09:54:45;;;;;;;5.78;2.50;;;;;;;13.73;40.16;101502.91;5057653;28;20017;-77
2022/04/11 09:57:12;;;;;;;11.32;2.85;;;;;;;13.61;39.44;101502.38;5037855;28;20040;-76
2022/04/11 09:59:39;;;;;;;8.48;2.85;;;;;;;13.46;39.86;101500.53;5038901;28;20024;-78
2022/04/11 10:02:06;;;;;;;6.50;2.40;;;;;;;13.60;39.09;101492.94;5024897;28;20041;-77
2022/04/11 10:04:32;;;;;;;5.25;2.60;;;;;;;13.65;40.73;101487.22;5037123;28;20067;-78
2022/04/11 10:06:57;;;;;;;7.47;2.30;;;;;;;13.82;39.95;101486.31;5059337;28;20081;-78
2022/04/11 10:09:23;;;;;;;11.38;4.03;;;;;;;13.86;40.09;101480.75;5038053;28;20041;-78
2022/04/11 10:11:53;;;;;;;6.35;2.33;;;;;;;13.90;39.79;101469.03;5042078;28;20040;-77
2022/04/11 10:14:26;;;;;;;3.92;2.20;;;;;;;13.99;38.88;101471.50;5037652;28;20081;-77
2022/04/11 10:16:57;;;;;;;6.50;2.88;;;;;;;13.94;38.27;101473.78;5042921;28;20082;-77
2022/04/11 10:19:31;;;;;;;5.35;2.30;;;;;;;13.53;39.12;101460.66;5057224;28;20561;-77
2022/04/11 10:22:03;;;;;;;9.73;2.90;;;;;;;13.65;39.57;101466.38;5042699;28;20074;-77
2022/04/11 10:24:34;;;;;;;9.60;2.83;;;;;;;13.46;38.54;101462.28;5023115;28;20047;-77
2022/04/11 10:27:23;;;;;;;5.38;2.22;;;;;;;13.86;39.86;101457.28;5058951;28;20466;-77
2022/04/11 10:29:53;;;;;;;4.45;2.20;;;;;;;13.72;37.60;101459.56;5042192;28;20040;-76
2022/04/11 10:32:30;;;;;;;7.47;2.10;;;;;;;13.81;38.14;101450.78;5057769;28;20489;-77
2022/04/11 10:35:04;;;;;;;7.70;2.08;;;;;;;13.81;38.87;101456.00;5022994;28;20032;-77
2022/04/11 10:37:39;;;;;;;5.47;2.40;;;;;;;13.80;37.56;101449.13;5041394;28;20044;-78
2022/04/11 10:40:17;;;;;;;5.60;2.28;;;;;;;13.99;36.89;101441.97;5020729;28;20135;-78
2022/04/11 10:43:00;;;;;;;5.38;2.30;;;;;;;14.21;37.51;101445.75;5041228;28;20036;-78
2022/04/11 10:45:37;;;;;;;5.35;2.15;;;;;;;14.16;36.88;101441.00;5041003;28;20029;-77
2022/04/11 10:48:05;;;;;;;9.68;2.72;;;;;;;13.81;36.32;101439.53;5026733;28;20147;-78
2022/04/11 10:50:41;;;;;;;8.95;2.67;;;;;;;13.76;36.82;101439.22;5020353;28;20040;-77
2022/04/11 10:53:09;;;;;;;4.28;1.85;;;;;;;13.64;36.89;101449.13;5041792;28;20467;-77
2022/04/11 10:55:36;;;;;;;5.97;2.00;;;;;;;13.74;36.88;101439.34;5037335;28;20033;-77
2022/04/11 10:58:03;;;;;;;5.43;1.98;;;;;;;13.80;36.76;101423.06;5041152;28;20123;-78
2022/04/11 11:00:34;;;;;;;8.27;3.05;;;;;;;14.11;37.52;101419.00;5037597;28;20025;-77
2022/04/11 11:03:06;;;;;;;7.80;2.85;;;;;;;13.96;36.20;101421.47;5040660;28;20036;-78
2022/04/11 11:05:32;;;;;;;7.03;2.95;;;;;;;13.86;36.19;101415.59;5055507;28;21333;-78
2022/04/11 11:08:09;;;;;;;6.80;2.20;;;;;;;13.80;36.88;101406.63;5057992;28;20100;-78
2022/04/11 11:10:53;;;;;;;5.78;2.47;;;;;;;13.92;38.30;101409.72;5038786;28;20489;-79
2022/04/11 11:13:43;;;;;;;8.85;2.42;;;;;;;14.02;38.02;101405.16;5055672;28;20093;-78
2022/04/11 11:16:14;;;;;;;7.45;2.28;;;;;;;14.32;38.50;101401.06;5022744;28;20690;-78
2022/04/11 11:18:52;;;;;;;4.85;2.25;;;;;;;14.36;37.75;101388.50;5019943;28;20181;-79
2022/04/11 11:21:34;;;;;;;6.90;2.70;;;;;;;14.56;35.96;101383.69;5025259;28;20024;-77
2022/04/11 11:24:03;;;;;;;7.43;2.63;;;;;;;14.43;36.26;101381.63;5058391;28;20072;-78
2022/04/11 11:26:46;;;;;;;7.97;2.85;;;;;;;14.52;38.04;101385.84;5057872;28;20028;-78
2022/04/11 11:29:23;;;;;;;4.05;2.15;;;;;;;14.86;37.34;101378.72;5028248;28;20021;-78